createdAt,value
2019-06-27T00:00:29.544Z,13.30
2019-06-27T00:01:29.606Z,14.40
2019-06-27T00:02:29.667Z,13.40
2019-06-27T00:03:29.934Z,14.40
2019-06-27T00:04:29.798Z,14.60
2019-06-27T00:05:30.267Z,14.10
2019-06-27T00:06:29.927Z,13.40
2019-06-27T00:07:29.991Z,13.50
2019-06-27T00:09:30.121Z,14.40
2019-06-27T00:10:34.042Z,13.40
2019-06-27T00:11:31.489Z,13.10
2019-06-27T00:12:30.339Z,13.40
2019-06-27T00:13:30.378Z,15.80
2019-06-27T00:14:30.460Z,14.00
2019-06-27T00:15:30.508Z,13.30
2019-06-27T00:16:30.604Z,15.10
2019-06-27T00:17:30.636Z,14.10
2019-06-27T00:18:30.700Z,15.60
2019-06-27T00:19:30.767Z,12.90
2019-06-27T00:20:30.829Z,14.10
2019-06-27T00:21:30.896Z,15.90
2019-06-27T00:22:30.958Z,13.80
2019-06-27T00:23:31.027Z,14.70
2019-06-27T00:24:31.087Z,16.70
2019-06-27T00:25:31.150Z,15.40
2019-06-27T00:26:31.215Z,12.70
2019-06-27T00:27:31.280Z,12.40
2019-06-27T00:28:31.347Z,13.20
2019-06-27T00:29:31.408Z,14.40
2019-06-27T00:30:31.474Z,12.30
2019-06-27T00:31:31.538Z,13.40
2019-06-27T00:32:31.605Z,12.90
2019-06-27T00:33:31.666Z,15.00
2019-06-27T00:34:31.731Z,13.20
2019-06-27T00:35:31.795Z,14.50
2019-06-27T00:36:31.860Z,13.50
2019-06-27T00:37:31.924Z,15.80
2019-06-27T00:38:31.999Z,13.30
2019-06-27T00:39:32.053Z,14.40
2019-06-27T00:40:32.117Z,15.40
2019-06-27T00:41:32.181Z,13.80
2019-06-27T00:42:32.245Z,12.10
2019-06-27T00:43:32.310Z,14.50
2019-06-27T00:44:32.377Z,12.70
2019-06-27T00:45:32.438Z,13.90
2019-06-27T00:46:32.503Z,12.10
2019-06-27T00:47:32.566Z,13.80
2019-06-27T00:48:32.632Z,12.60
2019-06-27T00:49:32.695Z,13.10
2019-06-27T00:50:32.759Z,13.50
2019-06-27T00:51:32.824Z,14.70
2019-06-27T00:52:32.888Z,13.50
2019-06-27T00:53:32.965Z,14.20
2019-06-27T00:54:33.017Z,13.20
2019-06-27T00:55:33.080Z,14.00
2019-06-27T00:56:33.146Z,13.60
2019-06-27T00:57:33.211Z,12.70
2019-06-27T00:58:33.274Z,11.20
2019-06-27T00:59:33.337Z,13.20
2019-06-27T01:00:33.403Z,13.10
2019-06-27T01:01:33.467Z,11.60
2019-06-27T01:02:33.531Z,13.90
2019-06-27T01:03:33.595Z,10.60
2019-06-27T01:04:33.661Z,12.50
2019-06-27T01:05:33.723Z,11.90
2019-06-27T01:06:33.788Z,12.40
2019-06-27T01:07:33.852Z,12.70
2019-06-27T01:08:33.916Z,12.50
2019-06-27T01:09:33.981Z,13.40
2019-06-27T01:10:34.044Z,13.80
2019-06-27T01:11:34.110Z,14.30
2019-06-27T01:12:34.176Z,13.20
2019-06-27T01:13:34.237Z,15.90
2019-06-27T01:14:34.309Z,12.50
2019-06-27T01:15:34.366Z,13.10
2019-06-27T01:16:34.430Z,13.20
2019-06-27T01:17:34.493Z,13.00
2019-06-27T01:18:34.558Z,12.10
2019-06-27T01:19:34.621Z,13.60
2019-06-27T01:20:34.692Z,16.70
2019-06-27T01:21:34.750Z,13.00
2019-06-27T01:22:34.817Z,14.50
2019-06-27T01:23:34.878Z,13.80
2019-06-27T01:24:34.944Z,11.70
2019-06-27T01:25:35.004Z,12.60
2019-06-27T01:26:35.070Z,11.70
2019-06-27T01:27:35.134Z,11.60
2019-06-27T01:28:35.198Z,12.30
2019-06-27T01:29:35.262Z,12.90
2019-06-27T01:30:35.325Z,14.10
2019-06-27T01:31:35.390Z,14.20
2019-06-27T01:32:35.453Z,15.50
2019-06-27T01:33:35.517Z,15.30
2019-06-27T01:34:35.580Z,13.80
2019-06-27T01:35:35.705Z,14.50
2019-06-27T01:36:35.713Z,12.60
2019-06-27T01:37:35.772Z,13.80
2019-06-27T01:38:35.837Z,13.40
2019-06-27T01:39:35.900Z,12.90
2019-06-27T01:40:35.966Z,12.70
2019-06-27T01:41:36.029Z,13.10
2019-06-27T01:42:36.091Z,13.40
2019-06-27T01:43:36.157Z,13.90
2019-06-27T01:44:36.278Z,16.00
2019-06-27T01:45:36.284Z,12.90
2019-06-27T01:46:36.351Z,12.70
2019-06-27T01:47:36.411Z,12.80
2019-06-27T01:48:36.475Z,13.50
2019-06-27T01:49:36.538Z,11.60
2019-06-27T01:50:36.603Z,12.00
2019-06-27T01:51:36.669Z,11.80
2019-06-27T01:52:36.731Z,13.10
2019-06-27T01:53:36.794Z,12.50
2019-06-27T01:54:36.858Z,11.60
2019-06-27T01:55:36.923Z,11.60
2019-06-27T01:56:36.986Z,10.20
2019-06-27T01:57:46.705Z,12.30
2019-06-27T01:58:37.113Z,10.40
2019-06-27T01:59:37.177Z,12.70
2019-06-27T02:00:37.348Z,12.00
2019-06-27T02:01:37.338Z,11.70
2019-06-27T02:02:37.368Z,16.00
2019-06-27T02:03:37.433Z,17.60
2019-06-27T02:04:37.529Z,12.50
2019-06-27T02:05:37.560Z,12.80
2019-06-27T02:06:37.636Z,12.70
2019-06-27T02:07:37.688Z,13.00
2019-06-27T02:08:37.752Z,11.80
2019-06-27T02:09:37.815Z,11.70
2019-06-27T02:10:37.878Z,10.60
2019-06-27T02:11:37.945Z,10.80
2019-06-27T02:12:38.030Z,11.00
2019-06-27T02:13:38.069Z,12.20
2019-06-27T02:14:38.132Z,9.90
2019-06-27T02:15:38.201Z,9.20
2019-06-27T02:16:38.271Z,10.20
2019-06-27T02:18:20.765Z,11.40
2019-06-27T02:19:20.833Z,11.00
2019-06-27T02:20:20.898Z,10.90
2019-06-27T02:21:20.958Z,10.30
2019-06-27T02:22:21.020Z,12.20
2019-06-27T02:23:21.084Z,11.30
2019-06-27T02:24:21.149Z,10.00
2019-06-27T02:25:21.212Z,11.70
2019-06-27T02:26:21.275Z,12.10
2019-06-27T02:27:21.339Z,11.90
2019-06-27T02:28:21.401Z,10.50
2019-06-27T02:29:21.466Z,13.70
2019-06-27T02:30:21.529Z,13.80
2019-06-27T02:31:21.594Z,13.00
2019-06-27T02:32:21.658Z,11.80
2019-06-27T02:33:21.721Z,12.20
2019-06-27T02:34:21.784Z,11.90
2019-06-27T02:35:21.849Z,10.10
2019-06-27T02:36:21.915Z,10.10
2019-06-27T02:37:21.977Z,9.20
2019-06-27T02:38:22.039Z,10.10
2019-06-27T02:39:22.112Z,10.60
2019-06-27T02:40:22.172Z,10.80
2019-06-27T02:41:22.229Z,10.30
2019-06-27T02:42:22.295Z,12.00
2019-06-27T02:43:22.356Z,11.00
2019-06-27T02:44:22.420Z,9.60
2019-06-27T02:45:22.491Z,12.00
2019-06-27T02:46:22.551Z,10.60
2019-06-27T02:47:22.612Z,12.30
2019-06-27T02:48:22.674Z,11.10
2019-06-27T02:49:22.739Z,9.90
2019-06-27T02:50:22.804Z,13.30
2019-06-27T02:51:22.866Z,14.30
2019-06-27T02:52:22.930Z,10.70
2019-06-27T02:53:23.034Z,13.10
2019-06-27T02:54:23.055Z,11.50
2019-06-27T02:55:23.123Z,11.10
2019-06-27T02:56:23.199Z,13.40
2019-06-27T02:57:23.247Z,12.20
2019-06-27T02:58:30.690Z,13.10
2019-06-27T02:59:23.372Z,10.90
2019-06-27T03:00:23.492Z,10.10
2019-06-27T03:01:23.499Z,10.00
2019-06-27T03:02:23.584Z,13.80
2019-06-27T03:03:23.878Z,10.50
2019-06-27T03:04:23.690Z,11.60
2019-06-27T03:05:23.759Z,11.20
2019-06-27T03:06:23.817Z,13.30
2019-06-27T03:07:23.886Z,10.50
2019-06-27T03:08:23.943Z,10.60
2019-06-27T03:09:24.006Z,11.90
2019-06-27T03:10:24.068Z,12.20
2019-06-27T03:11:24.150Z,12.40
2019-06-27T03:12:24.232Z,9.20
2019-06-27T03:13:24.264Z,13.70
2019-06-27T03:14:24.323Z,8.90
2019-06-27T03:15:24.384Z,10.80
2019-06-27T03:16:24.502Z,10.60
2019-06-27T03:17:24.512Z,10.40
2019-06-27T03:18:24.575Z,10.50
2019-06-27T03:19:24.639Z,15.20
2019-06-27T03:20:24.717Z,11.50
2019-06-27T03:21:24.765Z,11.00
2019-06-27T03:22:24.833Z,11.90
2019-06-27T03:23:24.897Z,13.20
2019-06-27T03:24:24.975Z,10.40
2019-06-27T03:25:25.018Z,10.40
2019-06-27T03:26:25.083Z,9.40
2019-06-27T03:27:25.144Z,9.20
2019-06-27T03:28:25.207Z,10.80
2019-06-27T03:29:25.274Z,10.90
2019-06-27T03:30:25.340Z,10.20
2019-06-27T03:31:25.397Z,10.30
2019-06-27T03:32:25.473Z,10.40
2019-06-27T03:33:25.524Z,9.40
2019-06-27T03:34:25.787Z,9.90
2019-06-27T03:35:25.652Z,11.30
2019-06-27T03:36:25.711Z,10.30
2019-06-27T03:37:25.776Z,10.40
2019-06-27T03:38:25.839Z,9.80
2019-06-27T03:39:25.900Z,8.80
2019-06-27T03:40:25.965Z,9.20
2019-06-27T03:41:26.036Z,12.30
2019-06-27T03:42:26.090Z,13.50
2019-06-27T03:43:26.155Z,8.60
2019-06-27T03:44:26.231Z,10.20
2019-06-27T03:45:26.286Z,8.90
2019-06-27T03:46:26.355Z,11.60
2019-06-27T03:47:26.410Z,9.50
2019-06-27T03:48:26.472Z,10.70
2019-06-27T03:49:26.551Z,12.70
2019-06-27T03:50:26.596Z,10.10
2019-06-27T03:51:26.667Z,9.60
2019-06-27T03:52:26.724Z,8.70
2019-06-27T03:53:26.821Z,9.80
2019-06-27T03:54:26.847Z,8.80
2019-06-27T03:55:26.911Z,9.70
2019-06-27T03:56:26.975Z,8.50
2019-06-27T03:57:27.040Z,9.50
2019-06-27T03:58:27.100Z,9.90
2019-06-27T03:59:27.171Z,7.90
2019-06-27T04:00:27.228Z,10.60
2019-06-27T04:01:27.290Z,9.20
2019-06-27T04:02:27.356Z,9.90
2019-06-27T04:03:27.485Z,9.20
2019-06-27T04:04:27.485Z,9.50
2019-06-27T04:05:27.543Z,7.80
2019-06-27T04:06:27.607Z,8.00
2019-06-27T04:07:27.674Z,9.40
2019-06-27T04:08:27.735Z,8.70
2019-06-27T04:09:27.795Z,8.90
2019-06-27T04:10:27.859Z,10.10
2019-06-27T04:13:53.755Z,9.70
2019-06-27T04:17:01.977Z,9.70
2019-06-27T04:17:54.018Z,8.70
2019-06-27T04:18:54.073Z,7.60
2019-06-27T04:19:54.135Z,9.40
2019-06-27T04:20:54.204Z,8.10
2019-06-27T04:21:54.261Z,8.60
2019-06-27T04:22:54.328Z,9.30
2019-06-27T04:23:54.391Z,7.30
2019-06-27T04:24:54.462Z,7.70
2019-06-27T04:25:54.564Z,7.90
2019-06-27T04:26:54.579Z,8.50
2019-06-27T04:27:59.463Z,7.70
2019-06-27T04:28:54.705Z,7.10
2019-06-27T04:29:54.769Z,6.70
2019-06-27T04:30:54.832Z,11.50
2019-06-27T04:31:54.896Z,10.00
2019-06-27T04:32:54.959Z,9.50
2019-06-27T04:33:55.021Z,9.60
2019-06-27T04:34:55.086Z,8.00
2019-06-27T04:35:55.149Z,7.30
2019-06-27T04:36:55.213Z,6.40
2019-06-27T04:37:55.276Z,10.10
2019-06-27T04:38:55.340Z,7.80
2019-06-27T04:39:55.413Z,7.60
2019-06-27T04:40:55.467Z,9.00
2019-06-27T04:41:55.530Z,9.00
2019-06-27T04:42:55.594Z,10.90
2019-06-27T04:43:55.659Z,7.60
2019-06-27T04:44:55.721Z,8.60
2019-06-27T04:45:55.793Z,7.00
2019-06-27T04:46:55.851Z,7.50
2019-06-27T04:47:55.912Z,5.50
2019-06-27T04:48:55.975Z,7.70
2019-06-27T04:49:56.086Z,6.60
2019-06-27T04:50:56.109Z,7.00
2019-06-27T04:51:56.173Z,6.40
2019-06-27T04:52:56.239Z,9.40
2019-06-27T04:53:56.295Z,7.40
2019-06-27T04:54:56.369Z,6.90
2019-06-27T04:55:56.430Z,7.10
2019-06-27T04:56:56.489Z,6.40
2019-06-27T04:57:56.553Z,8.10
2019-06-27T04:58:56.616Z,7.80
2019-06-27T04:59:56.679Z,7.70
2019-06-27T05:00:56.743Z,8.90
2019-06-27T05:01:56.805Z,6.00
2019-06-27T05:02:56.871Z,8.00
2019-06-27T05:03:56.935Z,6.40
2019-06-27T05:04:57.002Z,7.80
2019-06-27T05:05:57.071Z,7.90
2019-06-27T05:06:57.133Z,6.20
2019-06-27T05:07:57.200Z,7.40
2019-06-27T05:08:57.255Z,5.30
2019-06-27T05:09:57.318Z,7.00
2019-06-27T05:10:57.390Z,6.20
2019-06-27T05:11:57.448Z,6.40
2019-06-27T05:12:57.517Z,7.10
2019-06-27T05:13:57.575Z,6.00
2019-06-27T05:14:57.639Z,6.60
2019-06-27T05:15:57.705Z,7.50
2019-06-27T05:16:57.769Z,7.30
2019-06-27T05:17:57.896Z,6.60
2019-06-27T05:18:57.896Z,6.40
2019-06-27T05:19:57.959Z,7.00
2019-06-27T05:20:58.025Z,9.00
2019-06-27T05:21:58.089Z,7.20
2019-06-27T05:22:58.152Z,6.90
2019-06-27T05:23:58.226Z,6.90
2019-06-27T05:24:58.282Z,5.70
2019-06-27T05:25:58.346Z,7.30
2019-06-27T05:26:58.410Z,8.30
2019-06-27T05:27:58.474Z,5.10
2019-06-27T05:28:58.544Z,5.50
2019-06-27T05:30:08.611Z,6.80
2019-06-27T05:30:58.668Z,5.80
2019-06-27T05:31:58.732Z,5.70
2019-06-27T05:32:58.835Z,7.60
2019-06-27T05:33:58.875Z,5.60
2019-06-27T05:34:58.931Z,5.50
2019-06-27T05:36:02.195Z,6.10
2019-06-27T05:36:59.054Z,5.00
2019-06-27T05:37:59.119Z,6.80
2019-06-27T05:38:59.195Z,4.90
2019-06-27T05:39:59.245Z,6.50
2019-06-27T05:40:59.310Z,7.20
2019-06-27T05:41:59.373Z,6.70
2019-06-27T05:42:59.441Z,6.00
2019-06-27T05:43:59.511Z,6.30
2019-06-27T05:44:59.590Z,7.50
2019-06-27T05:45:59.633Z,5.40
2019-06-27T05:46:59.817Z,8.10
2019-06-27T05:47:59.762Z,6.80
2019-06-27T05:48:59.827Z,9.70
2019-06-27T05:49:59.891Z,9.80
2019-06-27T05:50:59.969Z,6.60
2019-06-27T05:52:00.020Z,6.50
2019-06-27T05:53:00.084Z,8.80
2019-06-27T05:54:00.150Z,5.10
2019-06-27T05:55:00.265Z,7.90
2019-06-27T05:56:00.279Z,9.10
2019-06-27T05:57:00.352Z,7.20
2019-06-27T05:58:00.408Z,6.80
2019-06-27T05:59:00.478Z,5.20
2019-06-27T06:00:00.538Z,5.80
2019-06-27T06:01:00.603Z,8.50
2019-06-27T06:02:00.667Z,5.40
2019-06-27T06:03:00.731Z,9.10
2019-06-27T06:04:00.797Z,12.30
2019-06-27T06:05:00.862Z,5.50
2019-06-27T06:06:00.929Z,5.80
2019-06-27T06:07:00.992Z,6.50
2019-06-27T06:08:01.056Z,5.30
2019-06-27T06:09:01.122Z,6.90
2019-06-27T06:10:01.185Z,8.70
2019-06-27T06:11:01.252Z,4.60
2019-06-27T06:12:01.317Z,6.50
2019-06-27T06:13:01.381Z,6.20
2019-06-27T06:14:01.446Z,6.90
2019-06-27T06:15:01.517Z,5.80
2019-06-27T06:16:44.019Z,6.10
2019-06-27T06:17:44.084Z,6.60
2019-06-27T06:18:44.148Z,11.80
2019-06-27T06:19:44.214Z,6.60
2019-06-27T06:20:44.297Z,10.70
2019-06-27T06:21:44.344Z,5.90
2019-06-27T06:22:44.409Z,6.80
2019-06-27T06:23:44.475Z,8.30
2019-06-27T06:24:44.543Z,13.50
2019-06-27T06:25:44.640Z,5.60
2019-06-27T06:26:44.671Z,7.40
2019-06-27T06:27:44.736Z,18.50
2019-06-27T06:28:44.800Z,8.60
2019-06-27T06:29:44.865Z,9.90
2019-06-27T06:30:45.334Z,6.60
2019-06-27T06:31:45.047Z,5.40
2019-06-27T06:32:45.063Z,5.70
2019-06-27T06:33:45.133Z,6.40
2019-06-27T06:34:45.194Z,8.90
2019-06-27T06:35:45.260Z,4.90
2019-06-27T06:36:45.325Z,6.90
2019-06-27T06:37:45.389Z,6.10
2019-06-27T06:38:45.456Z,4.50
2019-06-27T06:39:45.522Z,5.50
2019-06-27T06:40:45.588Z,5.10
2019-06-27T06:41:45.659Z,7.70
2019-06-27T06:42:45.719Z,7.00
2019-06-27T06:43:45.787Z,6.50
2019-06-27T06:44:45.851Z,4.50
2019-06-27T06:45:45.918Z,5.10
2019-06-27T06:46:45.984Z,6.80
2019-06-27T06:47:46.051Z,4.90
2019-06-27T06:48:46.118Z,4.50
2019-06-27T06:49:46.181Z,6.90
2019-06-27T06:50:46.247Z,6.70
2019-06-27T06:51:46.314Z,4.70
2019-06-27T06:52:46.378Z,4.60
2019-06-27T06:53:46.445Z,5.10
2019-06-27T06:54:46.511Z,8.40
2019-06-27T06:55:46.578Z,5.60
2019-06-27T06:56:46.643Z,9.00
2019-06-27T06:57:46.709Z,6.90
2019-06-27T06:58:46.789Z,4.00
2019-06-27T06:59:46.842Z,7.40
2019-06-27T07:01:00.342Z,4.90
2019-06-27T07:01:46.972Z,5.80
2019-06-27T07:02:47.038Z,8.20
2019-06-27T07:03:47.113Z,4.40
2019-06-27T07:04:47.205Z,5.00
2019-06-27T07:05:47.237Z,7.60
2019-06-27T07:06:47.351Z,7.60
2019-06-27T07:07:47.368Z,6.40
2019-06-27T07:08:47.452Z,6.20
2019-06-27T07:09:47.500Z,4.90
2019-06-27T07:10:47.566Z,4.80
2019-06-27T07:11:47.633Z,6.70
2019-06-27T07:12:47.697Z,7.00
2019-06-27T07:13:47.763Z,6.80
2019-06-27T07:14:47.834Z,5.00
2019-06-27T07:15:47.909Z,6.50
2019-06-27T07:16:47.965Z,5.30
2019-06-27T07:17:48.047Z,6.20
2019-06-27T07:18:48.093Z,6.10
2019-06-27T07:19:48.160Z,6.80
2019-06-27T07:20:48.241Z,6.60
2019-06-27T07:21:48.290Z,5.40
2019-06-27T07:22:48.373Z,7.50
2019-06-27T07:23:48.424Z,6.00
2019-06-27T07:24:48.550Z,4.40
2019-06-27T07:25:48.555Z,5.90
2019-06-27T07:26:48.622Z,4.10
2019-06-27T07:27:48.691Z,5.20
2019-06-27T07:28:48.752Z,5.50
2019-06-27T07:29:48.821Z,8.90
2019-06-27T07:30:48.885Z,5.30
2019-06-27T07:31:48.950Z,5.50
2019-06-27T07:32:49.029Z,4.50
2019-06-27T07:33:49.082Z,4.90
2019-06-27T07:34:49.148Z,5.00
2019-06-27T07:35:49.234Z,8.10
2019-06-27T07:36:49.280Z,5.10
2019-06-27T07:37:49.356Z,5.80
2019-06-27T07:38:49.411Z,6.50
2019-06-27T07:39:49.483Z,4.70
2019-06-27T07:40:49.557Z,4.20
2019-06-27T07:41:49.610Z,4.00
2019-06-27T07:42:49.675Z,4.40
2019-06-27T07:43:49.741Z,4.50
2019-06-27T07:44:49.825Z,4.70
2019-06-27T07:45:49.879Z,4.70
2019-06-27T07:46:49.939Z,6.10
2019-06-27T07:47:50.006Z,5.20
2019-06-27T07:48:50.075Z,6.00
2019-06-27T07:49:50.137Z,4.30
2019-06-27T07:50:50.204Z,5.70
2019-06-27T07:51:50.271Z,4.00
2019-06-27T07:52:50.334Z,2.50
2019-06-27T07:53:50.401Z,3.60
2019-06-27T07:54:50.468Z,5.60
2019-06-27T07:55:50.534Z,3.20
2019-06-27T07:56:50.619Z,5.00
2019-06-27T07:57:50.668Z,3.90
2019-06-27T07:58:50.731Z,2.80
2019-06-27T07:59:50.800Z,5.00
2019-06-27T08:00:50.862Z,4.40
2019-06-27T08:01:50.931Z,4.10
2019-06-27T08:02:50.994Z,3.10
2019-06-27T08:03:51.061Z,5.30
2019-06-27T08:04:51.132Z,4.70
2019-06-27T08:05:51.196Z,3.80
2019-06-27T08:06:51.261Z,4.70
2019-06-27T08:07:51.334Z,4.90
2019-06-27T08:08:51.391Z,3.40
2019-06-27T08:09:51.458Z,4.90
2019-06-27T08:10:51.523Z,4.30
2019-06-27T08:11:51.589Z,4.10
2019-06-27T08:12:51.653Z,5.80
2019-06-27T08:13:51.744Z,3.60
2019-06-27T08:14:51.787Z,3.90
2019-06-27T08:15:51.870Z,4.30
2019-06-27T08:16:51.919Z,4.80
2019-06-27T08:17:51.988Z,7.30
2019-06-27T08:18:52.052Z,3.10
2019-06-27T08:19:52.118Z,3.10
2019-06-27T08:20:52.189Z,4.20
2019-06-27T08:21:52.255Z,3.80
2019-06-27T08:22:52.316Z,4.50
2019-06-27T08:23:52.383Z,5.50
2019-06-27T08:24:52.449Z,4.70
2019-06-27T08:25:52.515Z,3.70
2019-06-27T08:26:52.580Z,2.90
2019-06-27T08:27:52.646Z,3.70
2019-06-27T08:28:52.720Z,6.00
2019-06-27T08:29:52.786Z,3.10
2019-06-27T08:30:52.847Z,4.70
2019-06-27T08:31:52.911Z,5.70
2019-06-27T08:32:52.977Z,4.90
2019-06-27T08:33:53.043Z,4.20
2019-06-27T08:34:53.109Z,4.90
2019-06-27T08:35:53.177Z,2.90
2019-06-27T08:36:53.241Z,4.60
2019-06-27T08:37:53.324Z,4.20
2019-06-27T08:38:53.374Z,4.40
2019-06-27T08:39:53.441Z,3.80
2019-06-27T08:40:53.506Z,7.10
2019-06-27T08:41:53.574Z,5.60
2019-06-27T08:42:53.645Z,4.40
2019-06-27T08:43:53.706Z,4.50
2019-06-27T08:44:53.777Z,4.70
2019-06-27T08:45:53.838Z,3.50
2019-06-27T08:46:53.909Z,5.30
2019-06-27T08:47:53.974Z,5.30
2019-06-27T08:48:54.040Z,6.50
2019-06-27T08:49:54.104Z,3.80
2019-06-27T08:50:54.175Z,4.00
2019-06-27T08:51:54.240Z,4.50
2019-06-27T08:52:54.303Z,5.70
2019-06-27T08:53:54.373Z,3.20
2019-06-27T08:54:54.437Z,3.90
2019-06-27T08:55:54.503Z,5.90
2019-06-27T08:56:54.569Z,5.00
2019-06-27T08:57:54.636Z,5.20
2019-06-27T08:58:54.864Z,3.70
2019-06-27T08:59:54.776Z,4.70
2019-06-27T09:00:54.834Z,4.00
2019-06-27T09:02:07.931Z,3.70
2019-06-27T09:02:54.972Z,3.90
2019-06-27T09:03:55.036Z,7.90
2019-06-27T09:04:55.101Z,4.70
2019-06-27T09:05:55.168Z,3.40
2019-06-27T09:06:55.235Z,5.50
2019-06-27T09:07:55.302Z,4.80
2019-06-27T09:08:55.367Z,5.30
2019-06-27T09:09:55.435Z,4.00
2019-06-27T09:10:55.504Z,3.70
2019-06-27T09:11:55.569Z,4.60
2019-06-27T09:12:55.634Z,4.20
2019-06-27T09:13:55.701Z,4.40
2019-06-27T09:14:55.770Z,3.80
2019-06-27T09:15:55.836Z,4.00
2019-06-27T09:16:55.902Z,4.40
2019-06-27T09:17:55.967Z,6.40
2019-06-27T09:18:56.033Z,7.40
2019-06-27T09:19:56.100Z,5.40
2019-06-27T09:20:56.166Z,4.20
2019-06-27T09:21:56.237Z,4.50
2019-06-27T09:22:56.300Z,5.00
2019-06-27T09:23:56.367Z,5.20
2019-06-27T09:24:56.432Z,4.00
2019-06-27T09:25:56.498Z,5.10
2019-06-27T09:26:56.565Z,4.90
2019-06-27T09:27:56.633Z,4.40
2019-06-27T09:28:56.699Z,5.50
2019-06-27T09:29:56.766Z,5.80
2019-06-27T09:30:56.832Z,4.10
2019-06-27T09:31:56.911Z,4.00
2019-06-27T09:32:56.963Z,5.80
2019-06-27T09:33:57.031Z,3.20
2019-06-27T09:34:57.097Z,4.90
2019-06-27T09:35:57.165Z,5.50
2019-06-27T09:36:57.232Z,5.20
2019-06-27T09:37:57.437Z,5.10
2019-06-27T09:38:57.365Z,3.90
2019-06-27T09:39:57.481Z,6.10
2019-06-27T09:40:57.501Z,2.60
2019-06-27T09:41:57.567Z,5.10
2019-06-27T09:42:57.639Z,4.80
2019-06-27T09:43:57.701Z,3.30
2019-06-27T09:44:57.769Z,2.60
2019-06-27T09:45:57.834Z,4.90
2019-06-27T09:46:57.901Z,4.80
2019-06-27T09:47:57.965Z,4.30
2019-06-27T09:48:58.033Z,3.90
2019-06-27T09:49:58.099Z,4.50
2019-06-27T09:50:58.167Z,4.20
2019-06-27T09:51:58.250Z,3.20
2019-06-27T09:52:58.300Z,4.80
2019-06-27T09:53:58.368Z,4.60
2019-06-27T09:54:58.433Z,3.50
2019-06-27T09:55:58.502Z,4.30
2019-06-27T09:56:58.568Z,5.60
2019-06-27T09:57:58.635Z,5.00
2019-06-27T09:58:58.702Z,3.10
2019-06-27T09:59:58.771Z,2.70
2019-06-27T10:00:58.842Z,7.40
2019-06-27T10:01:58.907Z,3.50
2019-06-27T10:02:58.975Z,7.50
2019-06-27T10:03:59.039Z,3.40
2019-06-27T10:04:59.109Z,7.70
2019-06-27T10:05:59.187Z,7.30
2019-06-27T10:06:59.248Z,4.20
2019-06-27T10:07:59.315Z,4.80
2019-06-27T10:08:59.381Z,2.90
2019-06-27T10:09:59.452Z,5.70
2019-06-27T10:10:59.520Z,4.10
2019-06-27T10:11:59.591Z,4.80
2019-06-27T10:12:59.658Z,3.50
2019-06-27T10:13:59.726Z,4.50
2019-06-27T10:14:59.800Z,5.50
2019-06-27T10:15:59.868Z,4.70
2019-06-27T10:16:59.939Z,3.90
2019-06-27T10:18:00.010Z,3.50
2019-06-27T10:19:00.085Z,3.40
2019-06-27T10:20:00.241Z,4.20
2019-06-27T10:21:00.225Z,5.60
2019-06-27T10:22:00.295Z,5.80
2019-06-27T10:23:00.367Z,6.00
2019-06-27T10:24:00.447Z,4.30
2019-06-27T10:25:00.515Z,3.90
2019-06-27T10:26:00.587Z,6.70
2019-06-27T10:27:00.667Z,4.00
2019-06-27T10:28:00.732Z,3.00
2019-06-27T10:29:00.808Z,4.60
2019-06-27T10:30:00.921Z,4.40
2019-06-27T10:31:00.953Z,4.20
2019-06-27T10:32:01.026Z,4.10
2019-06-27T10:33:01.100Z,4.00
2019-06-27T10:34:01.175Z,4.80
2019-06-27T10:35:01.253Z,6.30
2019-06-27T10:36:01.344Z,6.30
2019-06-27T10:37:01.398Z,5.00
2019-06-27T10:38:01.507Z,4.40
2019-06-27T10:39:01.554Z,4.70
2019-06-27T10:40:01.667Z,3.80
2019-06-27T10:41:01.697Z,3.60
2019-06-27T10:42:01.776Z,4.10
2019-06-27T10:43:01.848Z,5.20
2019-06-27T10:44:01.928Z,4.50
2019-06-27T10:45:02.125Z,5.10
2019-06-27T10:46:02.075Z,2.90
2019-06-27T10:47:02.168Z,4.90
2019-06-27T10:48:02.223Z,5.10
2019-06-27T10:49:02.301Z,5.20
2019-06-27T10:50:02.380Z,4.20
2019-06-27T10:51:02.880Z,4.00
2019-06-27T10:52:02.528Z,4.40
2019-06-27T10:53:02.600Z,5.70
2019-06-27T10:54:02.676Z,4.70
2019-06-27T10:55:02.750Z,8.30
2019-06-27T10:56:02.829Z,4.60
2019-06-27T10:57:02.908Z,5.70
2019-06-27T10:58:02.978Z,4.50
2019-06-27T10:59:03.054Z,6.30
2019-06-27T11:00:03.130Z,3.30
2019-06-27T11:01:03.205Z,4.20
2019-06-27T11:02:03.280Z,4.00
2019-06-27T11:03:15.070Z,5.70
2019-06-27T11:04:03.432Z,4.90
2019-06-27T11:05:03.508Z,2.90
2019-06-27T11:06:03.584Z,5.10
2019-06-27T11:07:03.661Z,4.50
2019-06-27T11:08:03.735Z,4.60
2019-06-27T11:09:03.813Z,2.70
2019-06-27T11:10:03.888Z,3.10
2019-06-27T11:11:03.964Z,3.20
2019-06-27T11:12:04.051Z,4.30
2019-06-27T11:13:04.119Z,3.60
2019-06-27T11:14:04.195Z,3.70
2019-06-27T11:15:04.269Z,4.80
2019-06-27T11:16:04.347Z,4.50
2019-06-27T11:17:04.420Z,4.80
2019-06-27T11:18:04.503Z,2.80
2019-06-27T11:19:04.572Z,2.60
2019-06-27T11:20:04.652Z,4.00
2019-06-27T11:21:04.724Z,2.40
2019-06-27T11:22:04.802Z,5.00
2019-06-27T11:23:04.894Z,1.90
2019-06-27T11:24:04.967Z,13.40
2019-06-27T11:25:05.031Z,8.30
2019-06-27T11:26:05.108Z,3.20
2019-06-27T11:27:05.197Z,3.10
2019-06-27T11:28:05.272Z,4.00
2019-06-27T11:29:05.362Z,4.00
2019-06-27T11:30:05.411Z,3.00
2019-06-27T11:31:05.498Z,4.90
2019-06-27T11:32:05.563Z,3.80
2019-06-27T11:33:05.653Z,2.80
2019-06-27T11:34:05.750Z,2.70
2019-06-27T11:35:05.796Z,4.70
2019-06-27T11:36:05.869Z,3.60
2019-06-27T11:37:05.945Z,4.90
2019-06-27T11:38:06.021Z,3.90
2019-06-27T11:39:06.098Z,4.30
2019-06-27T11:40:06.175Z,3.50
2019-06-27T11:41:06.257Z,3.30
2019-06-27T11:42:06.379Z,4.30
2019-06-27T11:43:06.402Z,2.20
2019-06-27T11:44:06.480Z,3.00
2019-06-27T11:45:06.554Z,3.30
2019-06-27T11:46:08.869Z,2.90
2019-06-27T11:47:06.708Z,3.90
2019-06-27T11:48:06.795Z,2.00
2019-06-27T11:49:06.860Z,2.00
2019-06-27T11:50:07.114Z,4.00
2019-06-27T11:51:07.013Z,3.40
2019-06-27T11:52:07.097Z,2.40
2019-06-27T11:53:07.167Z,3.30
2019-06-27T11:54:07.318Z,3.60
2019-06-27T11:55:07.346Z,2.50
2019-06-27T11:56:07.395Z,3.50
2019-06-27T11:57:07.471Z,2.50
2019-06-27T11:58:07.548Z,4.30
2019-06-27T11:59:07.625Z,4.20
2019-06-27T12:00:07.703Z,1.70
2019-06-27T12:01:07.774Z,2.70
2019-06-27T12:02:07.850Z,3.20
2019-06-27T12:03:07.927Z,3.30
2019-06-27T12:04:08.011Z,2.80
2019-06-27T12:05:08.081Z,2.80
2019-06-27T12:06:08.157Z,2.10
2019-06-27T12:07:08.233Z,3.20
2019-06-27T12:08:10.926Z,2.90
2019-06-27T12:09:08.384Z,3.50
2019-06-27T12:10:08.461Z,2.50
2019-06-27T12:11:08.538Z,7.80
2019-06-27T12:12:08.619Z,4.10
2019-06-27T12:13:08.690Z,4.10
2019-06-27T12:14:08.766Z,3.80
2019-06-27T12:15:08.843Z,3.10
2019-06-27T12:16:08.919Z,2.10
2019-06-27T12:17:08.995Z,2.70
2019-06-27T12:18:09.073Z,2.30
2019-06-27T12:19:09.156Z,2.40
2019-06-27T12:20:09.227Z,3.30
2019-06-27T12:21:09.319Z,2.80
2019-06-27T12:22:09.379Z,2.10
2019-06-27T12:23:09.462Z,3.90
2019-06-27T12:24:09.534Z,4.00
2019-06-27T12:25:09.625Z,2.70
2019-06-27T12:26:09.685Z,5.40
2019-06-27T12:27:09.762Z,3.00
2019-06-27T12:28:09.839Z,3.60
2019-06-27T12:29:09.914Z,2.50
2019-06-27T12:30:09.992Z,2.30
2019-06-27T12:31:20.018Z,3.70
2019-06-27T12:32:10.148Z,2.20
2019-06-27T12:33:10.222Z,2.40
2019-06-27T12:34:10.319Z,3.40
2019-06-27T12:35:10.374Z,2.70
2019-06-27T12:36:10.452Z,5.10
2019-06-27T12:37:10.528Z,6.10
2019-06-27T12:38:10.605Z,2.40
2019-06-27T12:39:10.682Z,2.30
2019-06-27T12:40:10.760Z,6.30
2019-06-27T12:41:10.835Z,6.30
2019-06-27T12:42:10.914Z,3.10
2019-06-27T12:43:14.288Z,3.30
2019-06-27T12:44:11.066Z,5.00
2019-06-27T12:45:11.142Z,2.80
2019-06-27T12:46:11.222Z,3.10
2019-06-27T12:47:11.296Z,3.00
2019-06-27T12:48:11.374Z,3.30
2019-06-27T12:49:11.449Z,2.30
2019-06-27T12:50:11.531Z,2.80
2019-06-27T12:51:11.612Z,2.30
2019-06-27T12:52:11.681Z,2.70
2019-06-27T12:53:11.757Z,2.90
2019-06-27T12:54:11.835Z,2.60
2019-06-27T12:55:11.919Z,6.60
2019-06-27T12:56:11.990Z,2.40
2019-06-27T12:57:12.065Z,6.30
2019-06-27T12:58:12.143Z,2.50
2019-06-27T12:59:12.222Z,2.90
2019-06-27T13:00:12.300Z,3.00
2019-06-27T13:01:12.372Z,5.80
2019-06-27T13:02:12.449Z,3.70
2019-06-27T13:03:12.528Z,3.20
2019-06-27T13:04:22.881Z,1.90
2019-06-27T13:05:12.691Z,3.30
2019-06-27T13:06:12.759Z,3.20
2019-06-27T13:07:12.836Z,2.10
2019-06-27T13:08:12.914Z,3.50
2019-06-27T13:09:12.989Z,2.10
2019-06-27T13:10:13.066Z,2.20
2019-06-27T13:11:13.145Z,4.20
2019-06-27T13:12:13.226Z,4.10
2019-06-27T13:13:13.297Z,4.60
2019-06-27T13:14:13.374Z,2.10
2019-06-27T13:15:13.454Z,4.50
2019-06-27T13:16:13.529Z,2.50
2019-06-27T13:17:13.605Z,2.90
2019-06-27T13:18:13.683Z,2.70
2019-06-27T13:19:13.759Z,4.10